createdAt,value
2018-10-21T00:00:19.727Z,26.87
2018-10-21T00:02:47.346Z,28.87
2018-10-21T00:05:15.001Z,33.93
2018-10-21T00:07:42.611Z,27.53
2018-10-21T00:10:10.928Z,31.43
2018-10-21T00:12:38.712Z,29.87
2018-10-21T00:15:07.368Z,26.13
2018-10-21T00:17:34.953Z,30.73
2018-10-21T00:20:02.549Z,28.27
2018-10-21T00:22:30.210Z,26.43
2018-10-21T00:24:57.808Z,31.23
2018-10-21T00:27:25.548Z,27.73
2018-10-21T00:29:53.155Z,26.30
2018-10-21T00:32:25.356Z,31.23
2018-10-21T00:34:52.959Z,29.00
2018-10-21T00:37:20.579Z,27.63
2018-10-21T00:39:48.151Z,25.77
2018-10-21T00:42:15.725Z,27.57
2018-10-21T00:44:43.318Z,27.23
2018-10-21T00:47:10.939Z,26.27
2018-10-21T00:49:38.604Z,23.17
2018-10-21T00:52:06.224Z,24.90
2018-10-21T00:54:33.877Z,22.33
2018-10-21T00:57:01.479Z,23.70
2018-10-21T00:59:29.034Z,24.97
2018-10-21T01:01:56.650Z,26.70
2018-10-21T01:04:24.282Z,25.03
2018-10-21T01:06:51.941Z,22.77
2018-10-21T01:09:19.592Z,23.33
2018-10-21T01:11:47.171Z,25.23
2018-10-21T01:14:14.767Z,23.17
2018-10-21T01:16:42.332Z,20.53
2018-10-21T01:19:09.967Z,23.13
2018-10-21T01:21:37.591Z,23.30
2018-10-21T01:24:05.954Z,26.63
2018-10-21T01:26:33.606Z,25.63
2018-10-21T01:29:01.145Z,26.80
2018-10-21T01:31:28.734Z,25.67
2018-10-21T01:33:56.386Z,25.57
2018-10-21T01:36:24.239Z,28.90
2018-10-21T01:38:51.700Z,25.30
2018-10-21T01:41:19.422Z,27.07
2018-10-21T01:43:47.025Z,29.43
2018-10-21T01:46:14.565Z,28.63
2018-10-21T01:48:42.154Z,27.00
2018-10-21T01:51:09.732Z,25.40
2018-10-21T01:53:37.276Z,24.70
2018-10-21T01:56:04.922Z,23.80
2018-10-21T01:58:32.468Z,24.00
2018-10-21T02:01:00.115Z,22.83
2018-10-21T02:03:27.706Z,24.00
2018-10-21T02:05:55.239Z,21.10
2018-10-21T02:08:22.755Z,22.23
2018-10-21T02:10:50.337Z,22.03
2018-10-21T02:13:17.890Z,21.80
2018-10-21T02:15:45.459Z,20.50
2018-10-21T02:18:13.066Z,20.47
2018-10-21T02:20:40.620Z,27.67
2018-10-21T02:23:08.211Z,25.43
2018-10-21T02:25:35.736Z,24.97
2018-10-21T02:28:03.331Z,22.40
2018-10-21T02:30:31.320Z,21.40
2018-10-21T02:32:59.635Z,25.60
2018-10-21T02:35:27.203Z,25.40
2018-10-21T02:37:55.347Z,21.20
2018-10-21T02:41:35.099Z,25.47
2018-10-21T02:44:03.365Z,27.43
2018-10-21T02:46:31.323Z,26.17
2018-10-21T02:48:59.542Z,27.27
2018-10-21T02:51:27.135Z,29.83
2018-10-21T02:53:54.665Z,24.90
2018-10-21T02:56:22.464Z,26.13
2018-10-21T02:58:50.035Z,28.43
2018-10-21T03:01:17.645Z,25.83
2018-10-21T03:03:45.347Z,27.60
2018-10-21T03:06:12.984Z,23.67
2018-10-21T03:08:40.667Z,26.73
2018-10-21T03:11:08.229Z,25.97
2018-10-21T03:13:35.913Z,29.37
2018-10-21T03:16:03.974Z,28.00
2018-10-21T03:18:31.697Z,25.97
2018-10-21T03:20:59.819Z,26.43
2018-10-21T03:23:27.371Z,25.80
2018-10-21T03:25:55.059Z,27.83
2018-10-21T03:28:22.765Z,24.70
2018-10-21T03:30:50.465Z,26.20
2018-10-21T03:33:18.284Z,24.27
2018-10-21T03:35:45.545Z,23.90
2018-10-21T03:38:13.218Z,23.30
2018-10-21T03:40:40.922Z,23.80
2018-10-21T03:43:08.792Z,24.07
2018-10-21T03:45:36.365Z,26.60
2018-10-21T03:48:04.163Z,26.50
2018-10-21T03:50:31.737Z,26.87
2018-10-21T03:52:59.384Z,24.00
2018-10-21T03:55:27.094Z,25.37
2018-10-21T03:57:54.706Z,23.90
2018-10-21T04:00:22.298Z,25.53
2018-10-21T04:02:49.992Z,25.43
2018-10-21T04:05:17.585Z,26.13
2018-10-21T04:07:45.156Z,23.60
2018-10-21T04:10:13.401Z,25.30
2018-10-21T04:12:41.192Z,25.20
2018-10-21T04:15:08.918Z,28.87
2018-10-21T04:17:36.457Z,26.17
2018-10-21T04:20:04.799Z,26.13
2018-10-21T04:22:36.896Z,31.67
2018-10-21T04:25:05.863Z,33.43
2018-10-21T04:27:33.432Z,30.23
2018-10-21T04:30:01.265Z,28.13
2018-10-21T04:32:29.444Z,28.87
2018-10-21T04:34:56.952Z,32.10
2018-10-21T04:37:35.944Z,35.20
2018-10-21T04:40:19.096Z,25.80
2018-10-21T04:42:46.949Z,28.40
2018-10-21T04:45:16.132Z,29.73
2018-10-21T04:47:43.679Z,28.60
2018-10-21T04:50:11.993Z,26.77
2018-10-21T04:52:39.624Z,26.20
2018-10-21T04:55:10.109Z,27.90
2018-10-21T04:57:39.097Z,27.70
2018-10-21T05:00:08.543Z,26.83
2018-10-21T05:02:36.233Z,25.20
2018-10-21T05:05:04.197Z,28.70
2018-10-21T05:07:31.872Z,28.93
2018-10-21T05:09:59.355Z,25.87
2018-10-21T05:12:26.945Z,25.90
2018-10-21T05:14:54.599Z,23.07
2018-10-21T05:17:22.326Z,23.70
2018-10-21T05:19:50.182Z,26.17
2018-10-21T05:22:17.825Z,26.23
2018-10-21T05:24:45.484Z,26.13
2018-10-21T05:27:13.210Z,30.30
2018-10-21T05:29:40.890Z,34.50
2018-10-21T05:32:08.606Z,30.57
2018-10-21T05:34:36.168Z,29.47
2018-10-21T05:37:04.230Z,40.63
2018-10-21T05:39:31.813Z,31.63
2018-10-21T05:41:59.525Z,33.33
2018-10-21T05:44:27.110Z,35.17
2018-10-21T05:46:54.910Z,32.47
2018-10-21T05:49:22.473Z,32.00
2018-10-21T05:51:50.828Z,35.70
2018-10-21T05:54:19.074Z,35.33
2018-10-21T05:56:48.107Z,32.90
2018-10-21T05:59:16.149Z,37.70
2018-10-21T06:01:44.569Z,37.23
2018-10-21T06:04:13.107Z,31.57
2018-10-21T06:06:40.597Z,36.63
2018-10-21T06:09:09.596Z,34.77
2018-10-21T06:11:37.401Z,31.70
2018-10-21T06:14:05.416Z,33.03
2018-10-21T06:16:38.680Z,30.90
2018-10-21T06:19:10.884Z,34.93
2018-10-21T06:21:38.740Z,33.30
2018-10-21T06:24:06.666Z,36.67
2018-10-21T06:26:34.252Z,31.13
2018-10-21T06:29:01.840Z,34.83
2018-10-21T06:31:29.605Z,33.90
2018-10-21T06:33:57.281Z,34.50
2018-10-21T06:36:24.946Z,32.67
2018-10-21T06:38:52.746Z,31.57
2018-10-21T06:41:20.303Z,26.87
2018-10-21T06:43:48.020Z,30.20
2018-10-21T06:46:15.661Z,26.17
2018-10-21T06:48:43.227Z,29.83
2018-10-21T06:51:10.935Z,31.63
2018-10-21T06:53:38.789Z,31.87
2018-10-21T06:56:06.393Z,32.00
2018-10-21T06:58:33.926Z,34.03
2018-10-21T07:01:01.500Z,27.47
2018-10-21T07:03:29.139Z,33.03
2018-10-21T07:06:14.132Z,29.03
2018-10-21T07:08:42.271Z,29.60
2018-10-21T07:11:09.868Z,26.93
2018-10-21T07:13:37.569Z,27.90
2018-10-21T07:16:05.555Z,29.47
2018-10-21T07:18:33.277Z,27.47
2018-10-21T07:21:00.985Z,24.60
2018-10-21T07:23:28.612Z,26.00
2018-10-21T07:25:56.155Z,27.93
2018-10-21T07:28:23.680Z,23.90
2018-10-21T07:30:51.247Z,26.87
2018-10-21T07:33:18.790Z,28.03
2018-10-21T07:35:46.336Z,25.77
2018-10-21T07:38:13.973Z,32.10
2018-10-21T07:40:41.594Z,28.53
2018-10-21T07:43:09.147Z,30.90
2018-10-21T07:45:36.749Z,35.13
2018-10-21T07:48:04.800Z,35.53
2018-10-21T07:50:32.503Z,32.77
2018-10-21T07:53:00.043Z,36.07
2018-10-21T07:55:27.755Z,37.40
2018-10-21T07:57:55.457Z,30.27
2018-10-21T08:00:23.010Z,34.13
2018-10-21T08:02:50.635Z,35.63
2018-10-21T08:05:29.574Z,40.53
2018-10-21T08:08:14.946Z,37.13
2018-10-21T08:10:42.620Z,41.23
2018-10-21T08:13:11.247Z,39.57
2018-10-21T08:15:39.471Z,35.07
2018-10-21T08:18:07.857Z,39.57
2018-10-21T08:20:35.908Z,42.97
2018-10-21T08:23:03.768Z,49.70
2018-10-21T08:25:31.372Z,39.53
2018-10-21T08:27:59.008Z,40.63
2018-10-21T08:30:26.583Z,50.33
2018-10-21T08:32:54.175Z,47.37
2018-10-21T08:35:22.048Z,47.73
2018-10-21T08:37:49.626Z,53.70
2018-10-21T08:40:17.249Z,50.73
2018-10-21T08:42:44.751Z,55.03
2018-10-21T08:45:12.424Z,70.17
2018-10-21T08:47:40.324Z,71.60
2018-10-21T08:50:08.016Z,74.43
2018-10-21T08:52:35.669Z,70.27
2018-10-21T08:55:03.628Z,74.20
2018-10-21T08:57:31.325Z,69.70
2018-10-21T08:59:58.880Z,72.53
2018-10-21T09:02:26.644Z,66.07
2018-10-21T09:04:54.217Z,65.03
2018-10-21T09:07:21.887Z,59.23
2018-10-21T09:09:49.490Z,63.20
2018-10-21T09:12:17.003Z,60.77
2018-10-21T09:14:45.257Z,56.23
2018-10-21T09:17:13.024Z,59.93
2018-10-21T09:19:40.569Z,62.60
2018-10-21T09:22:08.312Z,61.87
2018-10-21T09:24:35.803Z,62.80
2018-10-21T09:27:03.460Z,53.77
2018-10-21T09:29:31.061Z,50.70
2018-10-21T09:31:58.649Z,51.40
2018-10-21T09:34:26.157Z,50.67
2018-10-21T09:36:53.736Z,46.60
2018-10-21T09:39:21.293Z,50.17
2018-10-21T09:41:48.866Z,46.67
2018-10-21T09:44:16.433Z,44.70
2018-10-21T09:46:44.224Z,41.47
2018-10-21T09:49:12.466Z,42.50
2018-10-21T09:51:40.188Z,42.37
2018-10-21T09:54:07.833Z,41.10
2018-10-21T09:56:36.077Z,45.23
2018-10-21T09:59:03.761Z,46.80
2018-10-21T10:01:37.053Z,45.20
2018-10-21T10:04:04.784Z,40.83
2018-10-21T10:06:32.359Z,41.77
2018-10-21T10:08:59.937Z,37.47
2018-10-21T10:11:27.577Z,38.03
2018-10-21T10:13:55.111Z,38.67
2018-10-21T10:16:22.872Z,31.37
2018-10-21T10:18:50.432Z,37.27
2018-10-21T10:21:18.004Z,36.83
2018-10-21T10:23:45.737Z,37.57
2018-10-21T10:26:13.362Z,34.37
2018-10-21T10:28:40.916Z,33.27
2018-10-21T10:31:08.651Z,33.10
2018-10-21T10:33:36.128Z,37.17
2018-10-21T10:36:04.134Z,32.50
2018-10-21T10:38:31.648Z,35.23
2018-10-21T10:40:59.284Z,32.30
2018-10-21T10:43:27.032Z,32.53
2018-10-21T10:45:54.800Z,31.20
2018-10-21T10:48:22.364Z,29.23
2018-10-21T10:50:50.099Z,31.23
2018-10-21T10:53:17.652Z,32.30
2018-10-21T10:55:46.604Z,31.47
2018-10-21T10:58:15.666Z,31.23
2018-10-21T11:00:43.320Z,29.30
2018-10-21T11:03:10.925Z,28.30
2018-10-21T11:05:38.586Z,30.73
2018-10-21T11:08:06.439Z,36.17
2018-10-21T11:10:34.021Z,37.40
2018-10-21T11:13:02.128Z,33.73
2018-10-21T11:15:29.929Z,30.03
2018-10-21T11:17:57.476Z,28.43
2018-10-21T11:20:25.090Z,33.87
2018-10-21T11:22:52.788Z,27.63
2018-10-21T11:25:20.444Z,28.07
2018-10-21T11:27:48.144Z,33.70
2018-10-21T11:30:15.789Z,28.67
2018-10-21T11:32:43.793Z,37.87
2018-10-21T11:35:11.498Z,32.07
2018-10-21T11:40:02.356Z,29.43
2018-10-21T11:42:29.920Z,30.57
2018-10-21T11:44:57.540Z,34.87
2018-10-21T11:47:25.419Z,36.57
2018-10-21T11:49:53.114Z,30.37
2018-10-21T11:52:21.284Z,34.10
2018-10-21T11:54:49.114Z,30.97
2018-10-21T11:57:16.932Z,32.60
2018-10-21T11:59:44.580Z,30.83
2018-10-21T12:02:12.252Z,30.60
2018-10-21T12:04:39.841Z,24.07
2018-10-21T12:07:07.533Z,31.87
2018-10-21T12:09:35.076Z,27.27
2018-10-21T12:12:02.787Z,24.07
2018-10-21T12:14:30.372Z,21.53
2018-10-21T12:16:58.017Z,22.37
2018-10-21T12:19:25.641Z,20.63
2018-10-21T12:21:53.267Z,23.80
2018-10-21T12:24:20.812Z,18.57
2018-10-21T12:26:48.373Z,22.13
2018-10-21T12:29:16.009Z,22.60
2018-10-21T12:31:43.688Z,15.33
2018-10-21T12:34:11.437Z,18.67
2018-10-21T12:36:39.009Z,16.07
2018-10-21T12:39:08.274Z,18.40
2018-10-21T12:41:35.989Z,22.70
2018-10-21T12:44:03.606Z,17.57
2018-10-21T12:46:31.372Z,13.17
2018-10-21T12:48:59.171Z,16.63
2018-10-21T12:51:26.910Z,13.37
2018-10-21T12:53:54.605Z,14.27
2018-10-21T12:56:22.476Z,11.63
2018-10-21T12:58:50.037Z,12.90
2018-10-21T13:01:17.796Z,12.20
2018-10-21T13:03:45.642Z,11.10
2018-10-21T13:06:13.440Z,13.33
2018-10-21T13:08:40.945Z,10.43
2018-10-21T13:11:08.711Z,10.90
2018-10-21T13:13:36.730Z,12.60
2018-10-21T13:16:04.694Z,11.10
2018-10-21T13:18:32.239Z,13.50
2018-10-21T13:20:59.855Z,14.77
2018-10-21T13:23:27.466Z,9.47
2018-10-21T13:25:55.685Z,11.77
2018-10-21T13:28:23.773Z,7.37
2018-10-21T13:30:51.225Z,9.57
2018-10-21T13:33:18.912Z,7.47
2018-10-21T13:35:46.566Z,5.37
2018-10-21T13:38:14.437Z,5.30
2018-10-21T13:40:42.232Z,8.53
2018-10-21T13:43:10.099Z,5.97
2018-10-21T13:45:37.724Z,4.10
2018-10-21T13:48:05.558Z,6.13
2018-10-21T13:50:33.569Z,6.60
2018-10-21T13:53:02.505Z,5.93
2018-10-21T13:55:30.153Z,5.40
2018-10-21T13:57:57.861Z,5.73
2018-10-21T14:00:25.728Z,8.33
2018-10-21T14:02:53.621Z,7.10
2018-10-21T14:05:21.233Z,6.10
2018-10-21T14:07:48.965Z,4.30
2018-10-21T14:10:18.635Z,4.73
2018-10-21T14:12:46.247Z,4.37
2018-10-21T14:15:13.987Z,3.33
2018-10-21T14:17:41.997Z,4.20
2018-10-21T14:20:10.832Z,3.97
2018-10-21T14:22:38.764Z,5.33
2018-10-21T14:25:06.732Z,4.57
2018-10-21T14:27:34.241Z,5.97
2018-10-21T14:30:02.170Z,4.43
2018-10-21T14:32:29.751Z,4.27
2018-10-21T14:34:57.622Z,8.90
2018-10-21T14:37:25.617Z,6.57
2018-10-21T14:39:53.336Z,3.90
2018-10-21T14:42:20.965Z,3.83
2018-10-21T14:44:48.612Z,3.13
2018-10-21T14:47:16.322Z,3.87
2018-10-21T14:49:44.300Z,3.57
2018-10-21T14:52:11.845Z,3.73
2018-10-21T14:54:39.416Z,3.20
2018-10-21T14:57:07.070Z,5.33
2018-10-21T14:59:34.519Z,4.87
2018-10-21T15:02:02.477Z,3.77
2018-10-21T15:04:30.041Z,3.83
2018-10-21T15:06:57.634Z,7.27
2018-10-21T15:09:25.503Z,4.63
2018-10-21T15:11:53.064Z,4.53
2018-10-21T15:14:20.694Z,3.33
2018-10-21T15:16:48.678Z,5.17
2018-10-21T15:19:16.260Z,3.97
2018-10-21T15:21:43.956Z,3.43
2018-10-21T15:24:11.520Z,4.10
2018-10-21T15:26:39.565Z,3.60
2018-10-21T15:29:07.200Z,5.93
2018-10-21T15:31:34.805Z,2.43
2018-10-21T15:34:02.440Z,3.20
2018-10-21T15:36:30.071Z,4.63
2018-10-21T15:38:57.636Z,6.13
2018-10-21T15:41:26.164Z,3.87
2018-10-21T15:43:53.773Z,3.13
2018-10-21T15:46:21.640Z,3.30
2018-10-21T15:48:50.065Z,3.80
2018-10-21T15:51:17.846Z,3.97
2018-10-21T15:53:45.373Z,7.07
2018-10-21T15:56:13.057Z,5.97
2018-10-21T15:58:40.905Z,4.50
2018-10-21T16:01:08.579Z,5.07
2018-10-21T16:03:36.367Z,5.40
2018-10-21T16:06:04.300Z,3.20
2018-10-21T16:08:31.857Z,6.10
2018-10-21T16:10:59.466Z,6.10
2018-10-21T16:13:27.272Z,4.93
2018-10-21T16:15:55.099Z,5.73
2018-10-21T16:18:22.529Z,4.70
2018-10-21T16:20:50.046Z,5.40
2018-10-21T16:23:17.632Z,5.43
2018-10-21T16:25:45.401Z,4.30
2018-10-21T16:28:12.965Z,5.87
2018-10-21T16:30:40.609Z,3.97
2018-10-21T16:33:08.511Z,3.67
2018-10-21T16:35:36.409Z,3.20
2018-10-21T16:38:04.467Z,5.23
2018-10-21T16:40:32.573Z,2.17
2018-10-21T16:43:00.124Z,3.23
2018-10-21T16:45:27.747Z,4.83
2018-10-21T16:47:55.381Z,6.93
2018-10-21T16:50:23.060Z,5.53
2018-10-21T16:52:50.692Z,7.60
2018-10-21T16:55:18.216Z,5.70
2018-10-21T16:57:45.805Z,8.17
2018-10-21T17:00:14.715Z,14.60
2018-10-21T17:02:43.337Z,11.80
2018-10-21T17:05:11.365Z,13.60
2018-10-21T17:07:38.952Z,12.23
2018-10-21T17:10:07.866Z,5.97
2018-10-21T17:12:35.373Z,5.23
2018-10-21T17:15:03.255Z,5.70
2018-10-21T17:17:31.300Z,9.70
2018-10-21T17:19:59.213Z,4.83
2018-10-21T17:22:27.053Z,8.50
2018-10-21T17:24:54.682Z,6.83
2018-10-21T17:27:22.280Z,11.27
2018-10-21T17:29:49.869Z,11.80
2018-10-21T17:32:17.611Z,11.43
2018-10-21T17:34:45.269Z,14.10
2018-10-21T17:37:12.972Z,15.80
2018-10-21T17:39:40.659Z,22.13
2018-10-21T17:42:08.396Z,24.17
2018-10-21T17:44:36.010Z,22.03
2018-10-21T17:47:04.216Z,18.90
2018-10-21T17:49:32.097Z,16.30
2018-10-21T17:51:59.783Z,15.40
2018-10-21T17:54:27.290Z,9.13
2018-10-21T17:56:57.199Z,8.20
2018-10-21T17:59:24.929Z,9.60
2018-10-21T18:01:52.700Z,14.50
2018-10-21T18:04:20.589Z,13.80
2018-10-21T18:06:48.310Z,17.03
2018-10-21T18:09:15.947Z,11.40
2018-10-21T18:11:43.585Z,23.10
2018-10-21T18:14:11.369Z,22.83
2018-10-21T18:16:39.074Z,21.00
2018-10-21T18:19:07.529Z,17.67
2018-10-21T18:21:35.138Z,13.90
2018-10-21T18:24:02.969Z,13.83
2018-10-21T18:26:30.735Z,9.47
2018-10-21T18:28:58.363Z,10.90
2018-10-21T18:31:26.191Z,8.23
2018-10-21T18:33:53.844Z,9.87
2018-10-21T18:36:21.380Z,12.27
2018-10-21T18:38:48.940Z,9.37
2018-10-21T18:41:17.175Z,8.40
2018-10-21T18:43:50.422Z,9.07
2018-10-21T18:46:18.078Z,11.53
2018-10-21T18:48:45.554Z,10.23
2018-10-21T18:51:13.129Z,9.43
2018-10-21T18:53:40.712Z,9.60
2018-10-21T18:56:08.429Z,10.57
2018-10-21T18:58:36.141Z,10.07
2018-10-21T19:01:03.907Z,10.03
2018-10-21T19:03:31.481Z,10.63
2018-10-21T19:05:59.144Z,10.87
2018-10-21T19:08:26.780Z,13.70
2018-10-21T19:10:54.421Z,19.93
2018-10-21T19:13:22.078Z,12.40
2018-10-21T19:15:49.632Z,13.80
2018-10-21T19:18:17.269Z,10.17
2018-10-21T19:20:44.845Z,10.63
2018-10-21T19:23:12.573Z,10.73
2018-10-21T19:25:40.172Z,9.07
2018-10-21T19:28:07.833Z,8.33
2018-10-21T19:30:35.400Z,7.00
2018-10-21T19:33:03.100Z,11.77
2018-10-21T19:35:30.713Z,9.30
2018-10-21T19:37:58.313Z,7.73
2018-10-21T19:40:25.914Z,7.77
2018-10-21T19:42:53.499Z,8.57
2018-10-21T19:45:21.077Z,9.30
2018-10-21T19:47:48.648Z,8.27
2018-10-21T19:50:16.571Z,6.87
2018-10-21T19:52:44.427Z,6.20
2018-10-21T19:55:12.467Z,6.90
2018-10-21T19:57:40.024Z,7.27
2018-10-21T20:00:09.725Z,9.47
2018-10-21T20:02:37.383Z,11.33
2018-10-21T20:05:05.576Z,8.13
2018-10-21T20:07:33.208Z,12.80
2018-10-21T20:10:01.047Z,9.77
2018-10-21T20:12:28.646Z,8.93
2018-10-21T20:14:56.217Z,6.93
2018-10-21T20:17:23.903Z,7.40
2018-10-21T20:19:51.621Z,7.53
2018-10-21T20:22:19.279Z,11.70
2018-10-21T20:24:46.904Z,9.30
2018-10-21T20:27:14.562Z,12.10
2018-10-21T20:29:42.192Z,9.43
2018-10-21T20:32:09.837Z,11.20
2018-10-21T20:34:37.516Z,14.07
2018-10-21T20:37:05.253Z,14.03
2018-10-21T20:39:32.787Z,14.50
2018-10-21T20:42:00.521Z,12.93
2018-10-21T20:44:28.097Z,11.73
2018-10-21T20:46:55.740Z,10.80
2018-10-21T20:49:23.440Z,12.17
2018-10-21T20:51:51.012Z,12.00
2018-10-21T20:54:18.718Z,16.17
2018-10-21T20:56:46.254Z,13.67
2018-10-21T20:59:13.959Z,10.83
2018-10-21T21:01:41.529Z,12.83
2018-10-21T21:04:09.395Z,11.17
2018-10-21T21:06:37.179Z,11.40
2018-10-21T21:09:07.316Z,12.40
2018-10-21T21:11:35.088Z,14.33
2018-10-21T21:14:02.739Z,11.33
2018-10-21T21:16:30.449Z,12.23
2018-10-21T21:18:58.132Z,14.30
2018-10-21T21:21:25.711Z,11.70
2018-10-21T21:23:53.496Z,12.17
2018-10-21T21:26:21.037Z,10.53
2018-10-21T21:28:48.736Z,12.60
2018-10-21T21:31:16.385Z,12.87
2018-10-21T21:33:44.160Z,11.57
2018-10-21T21:36:11.765Z,13.07
2018-10-21T21:38:39.375Z,14.93
2018-10-21T21:41:06.945Z,10.57
2018-10-21T21:43:34.551Z,9.70
2018-10-21T21:46:02.486Z,13.17
2018-10-21T21:48:30.295Z,5.27
2018-10-21T21:50:57.874Z,5.77
2018-10-21T21:53:25.547Z,8.07
2018-10-21T21:55:53.236Z,5.43
2018-10-21T21:58:21.009Z,6.23
2018-10-21T22:00:48.577Z,5.93
2018-10-21T22:03:16.361Z,6.30
2018-10-21T22:05:43.959Z,8.57
2018-10-21T22:08:11.593Z,7.33
2018-10-21T22:10:39.193Z,5.60
2018-10-21T22:13:06.853Z,7.33
2018-10-21T22:15:34.638Z,6.97
2018-10-21T22:18:02.225Z,10.90
2018-10-21T22:20:29.769Z,8.77
2018-10-21T22:22:57.404Z,9.40
2018-10-21T22:25:25.205Z,6.03
2018-10-21T22:27:52.826Z,7.47
2018-10-21T22:30:20.552Z,5.93
2018-10-21T22:32:48.163Z,5.10
2018-10-21T22:35:15.777Z,6.00
2018-10-21T22:37:43.335Z,7.00
2018-10-21T22:40:10.960Z,10.03
2018-10-21T22:42:38.547Z,10.37
2018-10-21T22:45:07.240Z,9.70
2018-10-21T22:47:34.878Z,11.00
2018-10-21T22:50:02.469Z,8.77
2018-10-21T22:52:30.258Z,6.93
2018-10-21T22:54:57.951Z,8.13
2018-10-21T22:57:25.563Z,8.97
2018-10-21T22:59:53.158Z,8.97
2018-10-21T23:02:20.763Z,10.23
2018-10-21T23:04:48.393Z,19.57
2018-10-21T23:07:15.975Z,56.83
2018-10-21T23:09:43.523Z,72.93
2018-10-21T23:12:11.195Z,51.27
2018-10-21T23:14:38.795Z,39.43
2018-10-21T23:17:07.340Z,38.30
2018-10-21T23:19:40.663Z,33.50
2018-10-21T23:22:08.442Z,23.07
2018-10-21T23:24:36.736Z,15.77
2018-10-21T23:27:04.341Z,13.00
2018-10-21T23:29:31.947Z,22.23
2018-10-21T23:31:59.880Z,12.47
2018-10-21T23:34:27.665Z,11.77
2018-10-21T23:36:55.609Z,13.53
2018-10-21T23:39:23.219Z,16.03
2018-10-21T23:41:50.827Z,17.40
2018-10-21T23:44:18.661Z,15.47
2018-10-21T23:46:46.416Z,13.67
2018-10-21T23:49:14.138Z,17.67
2018-10-21T23:51:41.741Z,24.30
2018-10-21T23:54:09.668Z,14.87
2018-10-21T23:56:37.462Z,15.37
2018-10-21T23:59:06.078Z,14.30
